createdAt,value
2023-06-04T00:01:16.383Z,11.50
2023-06-04T00:03:47.253Z,11.50
2023-06-04T00:06:15.795Z,11.50
2023-06-04T00:08:44.117Z,11.40
2023-06-04T00:11:12.424Z,11.40
2023-06-04T00:13:40.756Z,11.40
2023-06-04T00:16:09.273Z,11.40
2023-06-04T00:18:37.586Z,11.50
2023-06-04T00:21:07.941Z,11.50
2023-06-04T00:23:36.444Z,11.50
2023-06-04T00:26:06.053Z,11.60
2023-06-04T00:28:34.294Z,11.60
2023-06-04T00:31:02.785Z,11.60
2023-06-04T00:33:31.115Z,11.70
2023-06-04T00:35:59.510Z,11.60
2023-06-04T00:38:29.259Z,11.70
2023-06-04T00:40:57.752Z,11.70
2023-06-04T00:43:32.528Z,11.70
2023-06-04T00:46:03.601Z,11.80
2023-06-04T00:48:32.658Z,11.80
2023-06-04T00:51:01.610Z,11.80
2023-06-04T00:53:31.629Z,11.80
2023-06-04T00:55:59.898Z,11.80
2023-06-04T00:58:28.333Z,11.80
2023-06-04T01:01:00.402Z,11.80
2023-06-04T01:03:32.673Z,11.90
2023-06-04T01:06:12.807Z,11.90
2023-06-04T01:08:44.557Z,11.90
2023-06-04T01:11:12.915Z,11.90
2023-06-04T01:13:41.216Z,11.90
2023-06-04T01:16:11.155Z,11.90
2023-06-04T01:18:41.789Z,11.90
2023-06-04T01:21:13.761Z,12.00
2023-06-04T01:23:59.452Z,11.90
2023-06-04T01:26:30.090Z,12.00
2023-06-04T01:29:00.022Z,12.00
2023-06-04T01:31:29.662Z,12.00
2023-06-04T01:33:59.017Z,12.00
2023-06-04T01:36:27.958Z,12.00
2023-06-04T01:38:57.599Z,12.00
2023-06-04T01:41:26.318Z,12.00
2023-06-04T01:43:54.591Z,12.00
2023-06-04T01:46:23.364Z,12.00
2023-06-04T01:48:51.719Z,12.00
2023-06-04T01:51:20.030Z,12.00
2023-06-04T01:53:48.327Z,12.00
2023-06-04T01:56:17.961Z,12.00
2023-06-04T01:58:46.893Z,12.00
2023-06-04T02:01:18.087Z,12.00
2023-06-04T02:03:46.663Z,12.00
2023-06-04T02:06:14.981Z,12.00
2023-06-04T02:08:43.629Z,12.00
2023-06-04T02:11:12.084Z,12.00
2023-06-04T02:13:41.740Z,12.00
2023-06-04T02:16:10.111Z,12.00
2023-06-04T02:18:38.392Z,11.90
2023-06-04T02:21:07.388Z,11.90
2023-06-04T02:23:36.210Z,11.90
2023-06-04T02:26:04.665Z,11.90
2023-06-04T02:28:33.008Z,11.90
2023-06-04T02:31:02.642Z,11.90
2023-06-04T02:33:31.016Z,11.90
2023-06-04T02:35:59.436Z,11.90
2023-06-04T02:38:27.709Z,11.90
2023-06-04T02:40:55.980Z,11.90
2023-06-04T02:43:24.341Z,11.80
2023-06-04T02:45:52.710Z,11.80
2023-06-04T02:48:22.405Z,11.80
2023-06-04T02:50:50.656Z,11.70
2023-06-04T02:53:19.202Z,11.70
2023-06-04T02:55:47.410Z,11.70
2023-06-04T02:58:17.177Z,11.70
2023-06-04T03:00:45.497Z,11.70
2023-06-04T03:03:13.968Z,11.60
2023-06-04T03:05:44.076Z,11.60
2023-06-04T03:08:12.502Z,11.60
2023-06-04T03:10:40.976Z,11.50
2023-06-04T03:13:09.289Z,11.50
2023-06-04T03:15:40.328Z,11.50
2023-06-04T03:18:09.244Z,11.40
2023-06-04T03:20:39.461Z,11.40
2023-06-04T03:23:09.374Z,11.40
2023-06-04T03:25:37.855Z,11.30
2023-06-04T03:28:06.773Z,11.30
2023-06-04T03:30:35.065Z,11.30
2023-06-04T03:33:03.947Z,11.20
2023-06-04T03:35:32.278Z,11.20
2023-06-04T03:38:00.525Z,11.30
2023-06-04T03:40:30.207Z,11.20
2023-06-04T03:42:58.480Z,11.20
2023-06-04T03:45:26.952Z,11.20
2023-06-04T03:47:55.264Z,11.10
2023-06-04T03:50:23.784Z,11.10
2023-06-04T03:52:52.307Z,11.10
2023-06-04T03:55:20.693Z,11.10
2023-06-04T03:57:50.717Z,11.00
2023-06-04T04:00:19.426Z,11.10
2023-06-04T04:02:47.851Z,11.10
2023-06-04T04:05:17.345Z,11.20
2023-06-04T04:07:45.895Z,11.20
2023-06-04T04:10:14.137Z,11.20
2023-06-04T04:12:42.426Z,11.20
2023-06-04T04:15:12.754Z,11.20
2023-06-04T04:17:41.129Z,11.30
2023-06-04T04:20:10.065Z,11.30
2023-06-04T04:22:43.241Z,11.30
2023-06-04T04:25:12.068Z,11.30
2023-06-04T04:27:41.979Z,11.40
2023-06-04T04:30:15.392Z,11.40
2023-06-04T04:32:50.072Z,11.50
2023-06-04T04:35:19.492Z,11.60
2023-06-04T04:37:48.236Z,11.80
2023-06-04T04:40:16.582Z,11.90
2023-06-04T04:42:45.140Z,11.90
2023-06-04T04:45:14.869Z,12.10
2023-06-04T04:47:43.219Z,12.20
2023-06-04T04:50:12.591Z,12.30
2023-06-04T04:52:40.917Z,12.40
2023-06-04T04:55:10.740Z,12.50
2023-06-04T04:57:39.063Z,12.60
2023-06-04T05:00:10.277Z,12.70
2023-06-04T05:02:40.109Z,12.80
2023-06-04T05:05:09.432Z,12.90
2023-06-04T05:07:37.672Z,12.90
2023-06-04T05:10:06.932Z,13.10
2023-06-04T05:12:35.242Z,13.20
2023-06-04T05:15:04.261Z,13.30
2023-06-04T05:17:32.695Z,13.30
2023-06-04T05:20:04.664Z,13.40
2023-06-04T05:22:34.124Z,13.40
2023-06-04T05:25:02.429Z,13.60
2023-06-04T05:27:32.547Z,13.50
2023-06-04T05:30:02.385Z,13.60
2023-06-04T05:32:31.587Z,13.70
2023-06-04T05:35:05.626Z,13.70
2023-06-04T05:37:35.389Z,13.80
2023-06-04T05:40:06.622Z,13.80
2023-06-04T05:42:35.046Z,13.90
2023-06-04T05:45:03.685Z,13.90
2023-06-04T05:47:32.534Z,14.00
2023-06-04T05:50:02.641Z,14.00
2023-06-04T05:52:31.054Z,14.10
2023-06-04T05:54:59.304Z,14.20
2023-06-04T05:57:27.676Z,14.20
2023-06-04T05:59:55.972Z,14.30
2023-06-04T06:02:24.293Z,14.40
2023-06-04T06:04:52.598Z,14.50
2023-06-04T06:07:22.429Z,14.60
2023-06-04T06:09:50.720Z,14.70
2023-06-04T06:12:19.028Z,14.70
2023-06-04T06:14:47.252Z,14.80
2023-06-04T06:17:15.803Z,14.80
2023-06-04T06:19:44.246Z,14.90
2023-06-04T06:22:12.735Z,15.00
2023-06-04T06:24:42.631Z,15.10
2023-06-04T06:27:13.985Z,15.20
2023-06-04T06:29:42.964Z,15.30
2023-06-04T06:32:11.921Z,15.40
2023-06-04T06:34:40.242Z,15.50
2023-06-04T06:37:09.612Z,15.60
2023-06-04T06:39:37.906Z,15.70
2023-06-04T06:42:07.706Z,15.80
2023-06-04T06:44:36.237Z,15.90
2023-06-04T06:47:04.635Z,16.00
2023-06-04T06:49:33.176Z,16.20
2023-06-04T06:52:01.485Z,16.20
2023-06-04T06:54:29.741Z,16.30
2023-06-04T06:56:59.019Z,16.40
2023-06-04T06:59:29.317Z,16.50
2023-06-04T07:01:57.659Z,16.60
2023-06-04T07:04:26.467Z,16.70
2023-06-04T07:06:54.718Z,16.80
2023-06-04T07:09:22.924Z,16.90
2023-06-04T07:11:51.205Z,17.00
2023-06-04T07:14:19.531Z,17.10
2023-06-04T07:16:49.216Z,17.20
2023-06-04T07:19:17.483Z,17.30
2023-06-04T07:21:45.873Z,17.40
2023-06-04T07:24:14.170Z,17.50
2023-06-04T07:26:42.630Z,17.60
2023-06-04T07:29:11.019Z,17.80
2023-06-04T07:31:39.287Z,17.80
2023-06-04T07:34:08.980Z,17.90
2023-06-04T07:36:37.730Z,18.00
2023-06-04T07:39:06.637Z,18.10
2023-06-04T07:41:35.106Z,18.20
2023-06-04T07:44:03.386Z,18.30
2023-06-04T07:46:32.989Z,18.40
2023-06-04T07:49:01.367Z,18.50
2023-06-04T07:51:31.007Z,18.60
2023-06-04T07:53:59.447Z,18.70
2023-06-04T07:56:27.859Z,18.80
2023-06-04T07:58:56.393Z,18.90
2023-06-04T08:01:25.008Z,19.00
2023-06-04T08:03:53.469Z,19.00
2023-06-04T08:06:21.928Z,19.20
2023-06-04T08:08:51.639Z,19.30
2023-06-04T08:11:20.204Z,19.30
2023-06-04T08:13:48.453Z,19.40
2023-06-04T08:16:16.857Z,19.50
2023-06-04T08:18:45.181Z,19.60
2023-06-04T08:21:14.000Z,19.80
2023-06-04T08:23:42.456Z,19.90
2023-06-04T08:26:12.333Z,20.00
2023-06-04T08:28:41.019Z,20.10
2023-06-04T08:31:09.707Z,20.20
2023-06-04T08:33:38.042Z,20.30
2023-06-04T08:36:07.130Z,20.30
2023-06-04T08:38:35.572Z,20.50
2023-06-04T08:41:15.690Z,20.60
2023-06-04T08:43:45.959Z,20.80
2023-06-04T08:46:15.932Z,20.80
2023-06-04T08:48:44.415Z,21.00
2023-06-04T08:51:15.120Z,21.20
2023-06-04T08:53:48.762Z,21.20
2023-06-04T08:56:18.962Z,21.30
2023-06-04T08:58:49.888Z,21.30
2023-06-04T09:01:20.162Z,21.40
2023-06-04T09:03:49.573Z,21.50
2023-06-04T09:06:18.057Z,21.60
2023-06-04T09:08:57.767Z,21.70
2023-06-04T09:11:36.274Z,21.80
2023-06-04T09:14:09.806Z,21.90
2023-06-04T09:16:46.474Z,22.00
2023-06-04T09:19:15.036Z,22.10
2023-06-04T09:21:54.060Z,22.10
2023-06-04T09:24:24.197Z,22.20
2023-06-04T09:26:54.202Z,22.30
2023-06-04T09:29:22.706Z,22.30
2023-06-04T09:32:00.851Z,22.40
2023-06-04T09:34:32.729Z,22.50
2023-06-04T09:37:01.373Z,22.70
2023-06-04T09:39:29.707Z,22.80
2023-06-04T09:42:04.037Z,22.80
2023-06-04T09:44:32.780Z,22.80
2023-06-04T09:47:01.783Z,23.00
2023-06-04T09:49:30.354Z,23.10
2023-06-04T09:51:58.687Z,23.20
2023-06-04T09:54:38.728Z,23.30
2023-06-04T09:57:17.552Z,23.30
2023-06-04T09:59:47.700Z,23.40
2023-06-04T10:02:20.192Z,23.50
2023-06-04T10:04:58.448Z,23.60
2023-06-04T10:07:27.723Z,23.70
2023-06-04T10:09:57.280Z,23.60
2023-06-04T10:12:33.560Z,23.70
2023-06-04T10:15:08.686Z,23.80
2023-06-04T10:17:38.299Z,23.80
2023-06-04T10:20:09.788Z,23.90
2023-06-04T10:22:38.300Z,23.90
2023-06-04T10:25:08.094Z,24.00
2023-06-04T10:27:37.857Z,24.00
2023-06-04T10:30:08.131Z,24.10
2023-06-04T10:32:37.196Z,24.10
2023-06-04T10:35:09.052Z,24.30
2023-06-04T10:37:37.593Z,24.30
2023-06-04T10:40:07.767Z,24.40
2023-06-04T10:42:45.067Z,24.60
2023-06-04T10:45:13.860Z,24.60
2023-06-04T10:47:42.888Z,24.70
2023-06-04T10:50:14.082Z,24.60
2023-06-04T10:52:54.688Z,24.60
2023-06-04T10:55:23.325Z,24.50
2023-06-04T10:57:57.153Z,24.60
2023-06-04T11:00:37.695Z,24.60
2023-06-04T11:03:09.701Z,24.70
2023-06-04T11:05:39.060Z,24.80
2023-06-04T11:08:08.363Z,24.90
2023-06-04T11:10:38.939Z,24.90
2023-06-04T11:13:08.814Z,25.00
2023-06-04T11:15:42.789Z,25.00
2023-06-04T11:18:17.519Z,25.00
2023-06-04T11:20:46.990Z,24.90
2023-06-04T11:23:16.904Z,25.10
2023-06-04T11:25:46.766Z,25.00
2023-06-04T11:28:19.965Z,25.10
2023-06-04T11:30:59.720Z,25.10
2023-06-04T11:33:28.400Z,25.20
2023-06-04T11:35:56.761Z,25.10
2023-06-04T11:38:25.081Z,25.00
2023-06-04T11:41:01.409Z,24.90
2023-06-04T11:43:31.559Z,24.90
2023-06-04T11:46:00.316Z,25.00
2023-06-04T11:48:29.072Z,25.10
2023-06-04T11:50:57.549Z,25.10
2023-06-04T11:53:27.200Z,25.10
2023-06-04T11:55:55.839Z,25.20
2023-06-04T11:58:24.221Z,25.30
2023-06-04T12:00:54.008Z,25.30
2023-06-04T12:03:35.705Z,25.30
2023-06-04T12:06:13.843Z,25.30
2023-06-04T12:08:54.245Z,25.30
2023-06-04T12:11:30.264Z,25.30
2023-06-04T12:14:00.769Z,25.30
2023-06-04T12:16:30.733Z,25.30
2023-06-04T12:19:11.292Z,25.20
2023-06-04T12:21:40.662Z,25.20
2023-06-04T12:24:11.179Z,25.30
2023-06-04T12:26:41.829Z,25.30
2023-06-04T12:29:12.413Z,25.20
2023-06-04T12:31:44.315Z,25.20
2023-06-04T12:34:13.674Z,25.30
2023-06-04T12:36:42.032Z,25.30
2023-06-04T12:39:10.313Z,25.30
2023-06-04T12:41:39.061Z,25.30
2023-06-04T12:44:07.492Z,25.30
2023-06-04T12:46:35.957Z,25.20
2023-06-04T12:49:06.632Z,25.30
2023-06-04T12:51:34.853Z,25.20
2023-06-04T12:54:03.100Z,25.30
2023-06-04T12:56:31.475Z,25.20
2023-06-04T12:59:00.010Z,25.10
2023-06-04T13:01:28.755Z,25.10
2023-06-04T13:03:57.745Z,25.00
2023-06-04T13:06:27.657Z,25.20
2023-06-04T13:08:56.076Z,25.20
2023-06-04T13:11:24.406Z,25.30
2023-06-04T13:13:52.739Z,25.30
2023-06-04T13:16:21.158Z,25.30
2023-06-04T13:18:49.607Z,25.30
2023-06-04T13:21:18.012Z,25.20
2023-06-04T13:23:50.304Z,25.30
2023-06-04T13:26:19.941Z,25.30
2023-06-04T13:28:49.133Z,25.30
2023-06-04T13:31:17.711Z,25.30
2023-06-04T13:33:46.425Z,25.40
2023-06-04T13:36:14.692Z,25.30
2023-06-04T13:38:44.434Z,25.30
2023-06-04T13:41:15.616Z,25.30
2023-06-04T13:43:43.931Z,25.30
2023-06-04T13:46:12.318Z,25.30
2023-06-04T13:48:40.624Z,25.30
2023-06-04T13:51:09.166Z,25.30
2023-06-04T13:53:37.736Z,25.20
2023-06-04T13:56:06.332Z,25.20
2023-06-04T13:58:36.056Z,25.10
2023-06-04T14:01:04.414Z,25.20
2023-06-04T14:03:32.811Z,25.20
2023-06-04T14:06:02.427Z,25.20
2023-06-04T14:08:30.727Z,25.20
2023-06-04T14:10:59.025Z,25.10
2023-06-04T14:13:27.295Z,25.00
2023-06-04T14:15:57.526Z,25.00
2023-06-04T14:18:25.830Z,25.00
2023-06-04T14:20:54.473Z,25.00
2023-06-04T14:23:22.789Z,25.00
2023-06-04T14:25:51.180Z,25.00
2023-06-04T14:28:21.837Z,24.90
2023-06-04T14:30:50.109Z,25.00
2023-06-04T14:33:19.924Z,24.90
2023-06-04T14:35:48.547Z,24.80
2023-06-04T14:38:17.296Z,24.80
2023-06-04T14:40:46.513Z,24.80
2023-06-04T14:43:15.195Z,24.80
2023-06-04T14:45:43.536Z,24.80
2023-06-04T14:48:16.210Z,24.70
2023-06-04T14:50:47.908Z,24.70
2023-06-04T14:53:16.210Z,24.80
2023-06-04T14:55:44.684Z,24.80
2023-06-04T14:58:13.495Z,24.80
2023-06-04T15:00:41.980Z,24.70
2023-06-04T15:03:10.722Z,24.70
2023-06-04T15:05:39.125Z,24.80
2023-06-04T15:08:09.630Z,24.80
2023-06-04T15:10:38.020Z,24.80
2023-06-04T15:13:06.459Z,24.70
2023-06-04T15:15:34.767Z,24.70
2023-06-04T15:18:03.309Z,24.70
2023-06-04T15:20:31.679Z,24.70
2023-06-04T15:23:00.195Z,24.60
2023-06-04T15:25:30.778Z,24.60
2023-06-04T15:27:59.654Z,24.60
2023-06-04T15:30:27.932Z,24.60
2023-06-04T15:32:56.227Z,24.60
2023-06-04T15:35:24.800Z,24.60
2023-06-04T15:37:53.067Z,24.60
2023-06-04T15:40:21.986Z,24.60
2023-06-04T15:42:51.952Z,24.50
2023-06-04T15:45:22.381Z,24.50
2023-06-04T15:47:50.740Z,24.40
2023-06-04T15:50:19.146Z,24.30
2023-06-04T15:52:47.944Z,24.30
2023-06-04T15:55:17.571Z,24.30
2023-06-04T15:57:45.982Z,24.30
2023-06-04T16:00:17.748Z,24.30
2023-06-04T16:02:46.191Z,24.20
2023-06-04T16:05:14.584Z,24.20
2023-06-04T16:07:42.880Z,24.10
2023-06-04T16:10:11.940Z,24.10
2023-06-04T16:12:40.686Z,24.10
2023-06-04T16:15:10.377Z,24.00
2023-06-04T16:17:43.549Z,24.00
2023-06-04T16:22:41.425Z,23.90
2023-06-04T16:25:10.886Z,23.90
2023-06-04T16:27:39.290Z,23.80
2023-06-04T16:30:09.588Z,23.80
2023-06-04T16:32:39.567Z,23.70
2023-06-04T16:35:10.451Z,23.60
2023-06-04T16:37:39.070Z,23.60
2023-06-04T16:40:08.913Z,23.60
2023-06-04T16:42:38.103Z,23.50
2023-06-04T16:45:07.610Z,23.50
2023-06-04T16:47:37.658Z,23.50
2023-06-04T16:50:09.030Z,23.50
2023-06-04T16:52:38.024Z,23.50
2023-06-04T16:55:09.547Z,23.40
2023-06-04T16:57:38.957Z,23.40
2023-06-04T17:00:24.956Z,23.40
2023-06-04T17:02:56.206Z,23.30
2023-06-04T17:05:29.027Z,23.30
2023-06-04T17:07:59.528Z,23.20
2023-06-04T17:10:33.658Z,23.20
2023-06-04T17:13:02.730Z,23.10
2023-06-04T17:15:31.309Z,23.10
2023-06-04T17:18:02.423Z,23.00
2023-06-04T17:20:33.125Z,23.00
2023-06-04T17:23:02.180Z,22.90
2023-06-04T17:25:33.260Z,22.80
2023-06-04T17:28:01.996Z,22.80
2023-06-04T17:30:30.480Z,22.70
2023-06-04T17:32:59.021Z,22.80
2023-06-04T17:35:27.407Z,22.70
2023-06-04T17:37:57.339Z,22.70
2023-06-04T17:40:27.598Z,22.60
2023-06-04T17:42:56.220Z,22.60
2023-06-04T17:45:24.546Z,22.50
2023-06-04T17:47:52.928Z,22.50
2023-06-04T17:50:21.330Z,22.50
2023-06-04T17:52:49.648Z,22.40
2023-06-04T17:55:19.772Z,22.30
2023-06-04T17:57:48.098Z,22.30
2023-06-04T18:00:17.978Z,22.30
2023-06-04T18:02:46.303Z,22.30
2023-06-04T18:05:14.770Z,22.20
2023-06-04T18:07:43.195Z,22.20
2023-06-04T18:10:12.286Z,22.20
2023-06-04T18:12:42.196Z,22.10
2023-06-04T18:15:11.969Z,22.10
2023-06-04T18:17:40.362Z,22.00
2023-06-04T18:20:10.542Z,22.00
2023-06-04T18:22:39.054Z,21.90
2023-06-04T18:25:09.415Z,21.90
2023-06-04T18:27:38.110Z,21.90
2023-06-04T18:30:09.928Z,21.90
2023-06-04T18:32:38.492Z,21.80
2023-06-04T18:35:07.580Z,21.80
2023-06-04T18:37:35.982Z,21.80
2023-06-04T18:40:04.651Z,21.80
2023-06-04T18:42:32.915Z,21.80
2023-06-04T18:45:04.522Z,21.80
2023-06-04T18:47:34.310Z,21.70
2023-06-04T18:50:02.695Z,21.70
2023-06-04T18:52:34.038Z,21.70
2023-06-04T18:55:02.899Z,21.60
2023-06-04T18:57:31.835Z,21.50
2023-06-04T19:00:00.229Z,21.50
2023-06-04T19:02:28.559Z,21.40
2023-06-04T19:04:58.253Z,21.40
2023-06-04T19:07:26.559Z,21.30
2023-06-04T19:09:54.867Z,21.30
2023-06-04T19:12:23.211Z,21.30
2023-06-04T19:14:51.566Z,21.30
2023-06-04T19:17:20.265Z,21.20
2023-06-04T19:19:49.445Z,21.20
2023-06-04T19:22:19.148Z,21.10
2023-06-04T19:24:47.469Z,21.00
2023-06-04T19:27:17.668Z,21.00
2023-06-04T19:29:46.838Z,21.00
2023-06-04T19:32:15.451Z,20.90
2023-06-04T19:34:43.867Z,20.80
2023-06-04T19:37:12.365Z,20.80
2023-06-04T19:39:42.112Z,20.80
2023-06-04T19:42:10.502Z,20.70
2023-06-04T19:44:39.050Z,20.60
2023-06-04T19:47:07.963Z,20.50
2023-06-04T19:49:36.385Z,20.40
2023-06-04T19:52:06.186Z,20.30
2023-06-04T19:54:34.490Z,20.20
2023-06-04T19:57:04.327Z,20.20
2023-06-04T19:59:32.724Z,20.10
2023-06-04T20:02:01.085Z,19.90
2023-06-04T20:04:29.464Z,19.90
2023-06-04T20:06:58.585Z,19.90
2023-06-04T20:09:27.269Z,19.80
2023-06-04T20:11:55.674Z,19.70
2023-06-04T20:14:25.404Z,19.60
2023-06-04T20:16:53.956Z,19.60
2023-06-04T20:19:23.299Z,19.50
2023-06-04T20:21:51.768Z,19.50
2023-06-04T20:24:21.199Z,19.30
2023-06-04T20:26:49.590Z,19.30
2023-06-04T20:29:17.912Z,19.20
2023-06-04T20:31:47.851Z,19.20
2023-06-04T20:34:16.326Z,19.10
2023-06-04T20:36:44.623Z,19.00
2023-06-04T20:39:12.889Z,18.90
2023-06-04T20:41:41.703Z,18.90
2023-06-04T20:44:09.999Z,18.80
2023-06-04T20:46:38.424Z,18.80
2023-06-04T20:49:08.239Z,18.70
2023-06-04T20:51:36.574Z,18.70
2023-06-04T20:54:06.430Z,18.80
2023-06-04T20:56:34.847Z,18.70
2023-06-04T20:59:03.165Z,18.70
2023-06-04T21:01:31.577Z,18.70
2023-06-04T21:04:01.570Z,18.70
2023-06-04T21:06:31.477Z,18.70
2023-06-04T21:08:59.799Z,18.70
2023-06-04T21:11:28.817Z,18.70
2023-06-04T21:13:58.012Z,18.70
2023-06-04T21:16:26.365Z,18.70
2023-06-04T21:18:55.071Z,18.70
2023-06-04T21:21:23.377Z,18.70
2023-06-04T21:23:53.182Z,18.70
2023-06-04T21:26:21.880Z,18.60
2023-06-04T21:28:50.432Z,18.60
2023-06-04T21:31:18.936Z,18.60
2023-06-04T21:33:47.388Z,18.60
2023-06-04T21:36:16.544Z,18.50
2023-06-04T21:38:45.356Z,18.50
2023-06-04T21:41:14.988Z,18.50
2023-06-04T21:43:43.293Z,18.50
2023-06-04T21:46:12.045Z,18.40
2023-06-04T21:48:40.355Z,18.40
2023-06-04T21:51:08.883Z,18.30
2023-06-04T21:53:37.377Z,18.30
2023-06-04T21:56:06.050Z,18.30
2023-06-04T21:58:35.925Z,18.20
2023-06-04T22:01:04.232Z,18.20
2023-06-04T22:03:32.612Z,18.20
2023-06-04T22:06:01.038Z,18.20
2023-06-04T22:08:29.281Z,18.10
2023-06-04T22:10:57.702Z,18.10
2023-06-04T22:13:26.032Z,18.10
2023-06-04T22:15:55.695Z,18.00
2023-06-04T22:18:23.997Z,17.90
2023-06-04T22:20:52.297Z,17.90
2023-06-04T22:23:20.590Z,17.90
2023-06-04T22:25:49.297Z,17.80
2023-06-04T22:28:17.563Z,17.80
2023-06-04T22:30:46.187Z,17.80
2023-06-04T22:33:15.930Z,17.70
2023-06-04T22:35:44.255Z,17.70
2023-06-04T22:38:12.587Z,17.60
2023-06-04T22:40:41.090Z,17.50
2023-06-04T22:43:09.347Z,17.50
2023-06-04T22:45:37.645Z,17.50
2023-06-04T22:48:06.652Z,17.40
2023-06-04T22:50:38.033Z,17.30
2023-06-04T22:53:09.134Z,17.30
2023-06-04T22:55:37.482Z,17.30
2023-06-04T22:58:05.926Z,17.20
2023-06-04T23:00:34.240Z,17.20
2023-06-04T23:03:02.629Z,17.20
2023-06-04T23:05:32.085Z,17.10
2023-06-04T23:08:01.750Z,17.10
2023-06-04T23:10:30.025Z,17.00
2023-06-04T23:12:58.294Z,17.00
2023-06-04T23:15:26.866Z,17.00
2023-06-04T23:17:55.210Z,16.90
2023-06-04T23:20:23.600Z,16.80
2023-06-04T23:22:51.812Z,16.80
2023-06-04T23:25:21.551Z,16.70
2023-06-04T23:27:50.004Z,16.70
2023-06-04T23:30:19.828Z,16.70
2023-06-04T23:32:48.226Z,16.60
2023-06-04T23:35:16.665Z,16.60
2023-06-04T23:37:45.027Z,16.50
2023-06-04T23:40:13.792Z,16.40
2023-06-04T23:42:43.436Z,16.40
2023-06-04T23:45:13.128Z,16.40
2023-06-04T23:47:41.449Z,16.30
2023-06-04T23:50:10.706Z,16.30
2023-06-04T23:52:40.143Z,16.20
2023-06-04T23:55:09.340Z,16.20
2023-06-04T23:57:37.587Z,16.20
